Norway House Airport
CYNE : now visible

Airfield :











YOU CAN JOIN US ON...

 
LOGIN :

Register | Disclaimer

   EN    FR    IT 

 









Legend :    VFR   Marginal VFR   IFR   Intensive IFR   Very Intensive IFR
Visi :
Ceiling :
>= 8 km
>= 3000ft
5 to 8 km
1000 to 3000 ft
1500m to 5 km
500 to 1000 ft
800 to 1500m
200 to 500 ft
< 800m
< 200 ft
Symbols :   Thunderstorms  Fog  Heavy snow  Heavy precipitations  Wind > 20 kt






- Airport Elevation : 734 ft
- IATA code : YNE


CYNE - Norway House

CURRENT METAR :
  • 151538Z AUTO 17006KT 2 1/2SM -SN BKN036 OVC065 M21/M23 A2967 RMK VIS VRB 1 3/4-3 SLP079

EXPIRED METARs :
  • 151510Z AUTO 17008KT 1 1/2SM -SN OVC036 M21/M23 A2967 RMK VIS VRB 3/4-2 1/2 SLP080
  • 151502Z AUTO 18007KT 1 1/4SM -SN OVC034 M21/M23 A2967 RMK VIS VRB 3/4-3 SLP080
  • 151452Z AUTO 18007KT 3SM -SN OVC038 M21/M23 A2967 RMK SLP079
  • 151444Z AUTO 17006KT 2 1/4SM -SN OVC036 M21/M23 A2967 RMK SLP079
  • 151406Z AUTO 17005KT 5SM -SN BKN039 OVC095 M21/M24 A2968 RMK SLP082
  • 151348Z AUTO 16005KT 3SM -SN OVC033 M21/M24 A2968 RMK SLP082
  • 151335Z AUTO 18008KT 1 1/2SM -SN OVC029 M21/M24 A2969 RMK SLP084
  • 151310Z AUTO 19006KT 2 1/4SM -SN OVC033 M21/M24 A2970 RMK VIS VRB 1 1/4-3 SLP090
  • 151258Z AUTO 18006KT 5SM -SN BKN039 OVC060 M21/M24 A2970 RMK SLP087

TAF AMD TAF CYNE
Valid from the 15 at 14:00 until the 16 at 01:00 UTC


151406Z 1514/1601 18006KT 6SM -SN BKN030
TEMPO 1514/1517 2SM -SN OVC020
PROB30 1514/1517 1SM -SN
FM151700 20008KT P6SM -SN BKN040
TEMPO 1517/1601 4SM -SN BKN020 OVC040
BECMG 1518/1520 29010KT RMK FCST BASED ON AUTO OBS. NXT FCST BY 151900Z



MET'MAP, your aeronautical weather chart ! - Copyright ORBIFLY December 2007 - Disclaimer

ORBIFLY MET'MAP TEAM :

Programming & Development : Alexandra Zaïnal
Concept & original design : Baudouin d'Aumeries
Assistance for programming : Marc-Olivier Méhu
Technical & hardware support : Manuel Goepfert

Contact : metmap@orbifly.com




SOURCES & CREDITS :

   NOAA       Earth
Advisory